sensor_id;sensor_type;location;lat;lon;timestamp;pressure;altitude;pressure_sealevel;temperature;humidity
18918;BME280;9591;52.742;13.650;2022-07-01T00:00:37;100711.22;;;18.41;100.00
18918;BME280;9591;52.742;13.650;2022-07-01T00:03:23;100712.19;;;18.40;100.00
18918;BME280;9591;52.742;13.650;2022-07-01T00:06:11;100719.25;;;18.41;100.00
18918;BME280;9591;52.742;13.650;2022-07-01T00:08:59;100694.97;;;18.29;100.00
18918;BME280;9591;52.742;13.650;2022-07-01T00:11:46;100715.72;;;18.40;100.00
18918;BME280;9591;52.742;13.650;2022-07-01T00:14:36;100720.41;;;18.37;100.00
18918;BME280;9591;52.742;13.650;2022-07-01T00:17:24;100720.41;;;18.37;100.00
18918;BME280;9591;52.742;13.650;2022-07-01T00:20:13;100726.75;;;18.35;100.00
18918;BME280;9591;52.742;13.650;2022-07-01T00:22:59;100715.34;;;18.32;100.00
18918;BME280;9591;52.742;13.650;2022-07-01T00:25:48;100713.53;;;18.32;100.00
18918;BME280;9591;52.742;13.650;2022-07-01T00:28:35;100711.59;;;18.34;100.00
18918;BME280;9591;52.742;13.650;2022-07-01T00:31:22;100710.09;;;18.30;100.00
18918;BME280;9591;52.742;13.650;2022-07-01T00:34:11;100712.88;;;18.29;100.00
18918;BME280;9591;52.742;13.650;2022-07-01T00:36:58;100703.59;;;18.20;100.00
18918;BME280;9591;52.742;13.650;2022-07-01T00:39:45;100697.69;;;18.15;100.00
18918;BME280;9591;52.742;13.650;2022-07-01T00:42:33;100688.25;;;18.10;100.00
18918;BME280;9591;52.742;13.650;2022-07-01T00:45:24;100689.09;;;18.10;100.00
18918;BME280;9591;52.742;13.650;2022-07-01T00:48:10;100681.91;;;18.11;100.00
18918;BME280;9591;52.742;13.650;2022-07-01T00:50:57;100681.16;;;18.09;100.00
18918;BME280;9591;52.742;13.650;2022-07-01T00:53:44;100670.34;;;18.10;100.00
18918;BME280;9591;52.742;13.650;2022-07-01T00:56:31;100677.63;;;18.08;100.00
18918;BME280;9591;52.742;13.650;2022-07-01T00:59:20;100677.81;;;18.05;100.00
18918;BME280;9591;52.742;13.650;2022-07-01T01:02:07;100683.16;;;18.05;100.00
18918;BME280;9591;52.742;13.650;2022-07-01T01:04:54;100690.34;;;18.05;100.00
18918;BME280;9591;52.742;13.650;2022-07-01T01:07:40;100689.50;;;18.04;100.00
18918;BME280;9591;52.742;13.650;2022-07-01T01:10:27;100690.44;;;18.03;100.00
18918;BME280;9591;52.742;13.650;2022-07-01T01:13:14;100692.25;;;18.02;100.00
18918;BME280;9591;52.742;13.650;2022-07-01T01:16:02;100691.59;;;17.99;100.00
18918;BME280;9591;52.742;13.650;2022-07-01T01:18:49;100690.84;;;17.97;100.00
18918;BME280;9591;52.742;13.650;2022-07-01T01:21:37;100685.47;;;17.97;100.00
18918;BME280;9591;52.742;13.650;2022-07-01T01:24:24;100686.44;;;17.96;100.00
18918;BME280;9591;52.742;13.650;2022-07-01T01:27:11;100695.44;;;17.95;100.00
18918;BME280;9591;52.742;13.650;2022-07-01T01:29:59;100691.22;;;17.91;100.00
18918;BME280;9591;52.742;13.650;2022-07-01T01:32:45;100682.63;;;17.86;100.00
18918;BME280;9591;52.742;13.650;2022-07-01T01:35:32;100679.94;;;17.86;100.00
18918;BME280;9591;52.742;13.650;2022-07-01T01:38:20;100676.50;;;17.84;100.00
18918;BME280;9591;52.742;13.650;2022-07-01T01:41:07;100669.41;;;17.83;100.00
18918;BME280;9591;52.742;13.650;2022-07-01T01:43:54;100676.59;;;17.82;100.00
18918;BME280;9591;52.742;13.650;2022-07-01T01:46:41;100670.38;;;17.82;100.00
18918;BME280;9591;52.742;13.650;2022-07-01T01:49:28;100666.94;;;17.80;100.00
18918;BME280;9591;52.742;13.650;2022-07-01T01:52:14;100672.38;;;17.78;100.00
18918;BME280;9591;52.742;13.650;2022-07-01T01:55:03;100665.41;;;17.76;100.00
18918;BME280;9591;52.742;13.650;2022-07-01T01:57:50;100667.50;;;17.71;100.00
18918;BME280;9591;52.742;13.650;2022-07-01T02:00:37;100665.97;;;17.66;100.00
18918;BME280;9591;52.742;13.650;2022-07-01T02:03:23;100675.97;;;17.63;100.00
18918;BME280;9591;52.742;13.650;2022-07-01T02:06:11;100668.72;;;17.65;100.00
18918;BME280;9591;52.742;13.650;2022-07-01T02:08:57;100663.66;;;17.60;100.00
18918;BME280;9591;52.742;13.650;2022-07-01T02:11:48;100656.56;;;17.59;100.00
18918;BME280;9591;52.742;13.650;2022-07-01T02:14:35;100650.44;;;17.57;100.00
18918;BME280;9591;52.742;13.650;2022-07-01T02:17:22;100651.41;;;17.56;100.00
18918;BME280;9591;52.742;13.650;2022-07-01T02:20:11;100654.94;;;17.57;100.00
18918;BME280;9591;52.742;13.650;2022-07-01T02:22:59;100652.34;;;17.55;100.00
18918;BME280;9591;52.742;13.650;2022-07-01T02:25:46;100646.34;;;17.52;100.00
18918;BME280;9591;52.742;13.650;2022-07-01T02:28:34;100641.44;;;17.44;100.00
18918;BME280;9591;52.742;13.650;2022-07-01T02:31:21;100644.13;;;17.44;100.00
18918;BME280;9591;52.742;13.650;2022-07-01T02:34:08;100646.03;;;17.42;100.00
18918;BME280;9591;52.742;13.650;2022-07-01T02:36:55;100621.59;;;17.20;100.00
18918;BME280;9591;52.742;13.650;2022-07-01T02:39:43;100657.81;;;17.40;100.00
18918;BME280;9591;52.742;13.650;2022-07-01T02:42:29;100655.41;;;17.35;100.00
18918;BME280;9591;52.742;13.650;2022-07-01T02:45:21;100663.75;;;17.30;100.00
18918;BME280;9591;52.742;13.650;2022-07-01T02:48:09;100654.94;;;17.28;100.00
18918;BME280;9591;52.742;13.650;2022-07-01T02:50:56;100655.81;;;17.29;100.00
18918;BME280;9591;52.742;13.650;2022-07-01T02:53:44;100656.69;;;17.29;100.00
18918;BME280;9591;52.742;13.650;2022-07-01T02:56:30;100664.28;;;17.35;100.00
18918;BME280;9591;52.742;13.650;2022-07-01T02:59:17;100664.19;;;17.37;100.00
18918;BME280;9591;52.742;13.650;2022-07-01T03:02:05;100664.97;;;17.39;100.00
18918;BME280;9591;52.742;13.650;2022-07-01T03:04:52;100661.06;;;17.45;100.00
18918;BME280;9591;52.742;13.650;2022-07-01T03:07:40;100662.59;;;17.49;100.00
18918;BME280;9591;52.742;13.650;2022-07-01T03:10:26;100658.66;;;17.54;100.00
18918;BME280;9591;52.742;13.650;2022-07-01T03:13:13;100667.78;;;17.66;100.00
18918;BME280;9591;52.742;13.650;2022-07-01T03:16:00;100667.00;;;17.64;100.00
18918;BME280;9591;52.742;13.650;2022-07-01T03:18:48;100675.81;;;17.66;100.00
18918;BME280;9591;52.742;13.650;2022-07-01T03:21:35;100673.06;;;17.67;100.00
18918;BME280;9591;52.742;13.650;2022-07-01T03:24:22;100676.41;;;17.71;100.00
18918;BME280;9591;52.742;13.650;2022-07-01T03:27:08;100674.38;;;17.75;100.00
18918;BME280;9591;52.742;13.650;2022-07-01T03:29:55;100675.34;;;17.74;100.00
18918;BME280;9591;52.742;13.650;2022-07-01T03:32:42;100677.94;;;17.75;100.00
18918;BME280;9591;52.742;13.650;2022-07-01T03:35:31;100677.06;;;17.75;100.00
18918;BME280;9591;52.742;13.650;2022-07-01T03:38:24;100677.06;;;17.75;100.00
18918;BME280;9591;52.742;13.650;2022-07-01T03:41:11;100673.25;;;17.79;100.00
18918;BME280;9591;52.742;13.650;2022-07-01T03:43:58;100668.25;;;17.87;100.00
18918;BME280;9591;52.742;13.650;2022-07-01T03:46:45;100678.41;;;17.96;100.00
18918;BME280;9591;52.742;13.650;2022-07-01T03:49:32;100669.00;;;18.03;100.00
18918;BME280;9591;52.742;13.650;2022-07-01T03:52:20;100670.53;;;18.07;100.00
18918;BME280;9591;52.742;13.650;2022-07-01T03:55:07;100669.84;;;18.18;100.00
18918;BME280;9591;52.742;13.650;2022-07-01T03:57:53;100664.81;;;18.26;100.00
18918;BME280;9591;52.742;13.650;2022-07-01T04:00:42;100669.47;;;18.37;100.00
18918;BME280;9591;52.742;13.650;2022-07-01T04:03:29;100667.25;;;18.43;100.00
18918;BME280;9591;52.742;13.650;2022-07-01T04:06:17;100668.47;;;18.52;100.00
18918;BME280;9591;52.742;13.650;2022-07-01T04:09:05;100671.13;;;18.66;100.00
18918;BME280;9591;52.742;13.650;2022-07-01T04:11:52;100667.44;;;18.81;100.00
18918;BME280;9591;52.742;13.650;2022-07-01T04:14:39;100664.47;;;18.98;100.00
18918;BME280;9591;52.742;13.650;2022-07-01T04:17:26;100672.28;;;19.14;100.00
18918;BME280;9591;52.742;13.650;2022-07-01T04:20:16;100679.88;;;19.60;100.00
18918;BME280;9591;52.742;13.650;2022-07-01T04:23:03;100673.91;;;20.66;100.00
18918;BME280;9591;52.742;13.650;2022-07-01T04:25:50;100682.50;;;21.86;100.00
18918;BME280;9591;52.742;13.650;2022-07-01T04:28:36;100673.53;;;23.05;100.00
18918;BME280;9591;52.742;13.650;2022-07-01T04:31:23;100678.75;;;23.90;100.00
18918;BME280;9591;52.742;13.650;2022-07-01T04:34:10;100680.78;;;24.47;100.00
18918;BME280;9591;52.742;13.650;2022-07-01T04:36:56;100676.66;;;24.72;100.00
18918;BME280;9591;52.742;13.650;2022-07-01T04:39:44;100672.00;;;25.03;100.00
18918;BME280;9591;52.742;13.650;2022-07-01T04:42:32;100681.22;;;25.20;96.85
18918;BME280;9591;52.742;13.650;2022-07-01T04:45:19;100688.38;;;24.82;99.35
18918;BME280;9591;52.742;13.650;2022-07-01T04:48:06;100691.69;;;24.27;100.00
18918;BME280;9591;52.742;13.650;2022-07-01T04:50:52;100683.59;;;23.96;100.00
18918;BME280;9591;52.742;13.650;2022-07-01T04:53:39;100687.13;;;23.36;100.00
18918;BME280;9591;52.742;13.650;2022-07-01T04:56:26;100682.38;;;23.28;100.00
18918;BME280;9591;52.742;13.650;2022-07-01T04:59:15;100681.72;;;23.57;100.00
18918;BME280;9591;52.742;13.650;2022-07-01T05:02:03;100672.63;;;23.88;100.00
18918;BME280;9591;52.742;13.650;2022-07-01T05:04:56;100658.16;;;24.08;100.00
18918;BME280;9591;52.742;13.650;2022-07-01T05:07:43;100661.22;;;24.34;100.00
18918;BME280;9591;52.742;13.650;2022-07-01T05:10:30;100664.75;;;24.15;100.00
18918;BME280;9591;52.742;13.650;2022-07-01T05:13:16;100646.44;;;23.89;100.00
18918;BME280;9591;52.742;13.650;2022-07-01T05:16:05;100657.00;;;24.01;100.00
18918;BME280;9591;52.742;13.650;2022-07-01T05:18:54;100670.81;;;23.98;100.00
18918;BME280;9591;52.742;13.650;2022-07-01T05:21:58;100670.31;;;23.83;100.00
18918;BME280;9591;52.742;13.650;2022-07-01T05:24:45;100665.13;;;24.01;100.00
18918;BME280;9591;52.742;13.650;2022-07-01T05:27:32;100660.88;;;24.08;100.00
18918;BME280;9591;52.742;13.650;2022-07-01T05:30:20;100659.34;;;24.15;100.00
18918;BME280;9591;52.742;13.650;2022-07-01T05:33:09;100666.94;;;24.41;100.00
18918;BME280;9591;52.742;13.650;2022-07-01T05:35:55;100676.50;;;24.55;100.00
18918;BME280;9591;52.742;13.650;2022-07-01T05:38:42;100673.41;;;24.69;100.00
18918;BME280;9591;52.742;13.650;2022-07-01T05:41:29;100679.22;;;24.64;100.00
18918;BME280;9591;52.742;13.650;2022-07-01T05:44:16;100670.72;;;24.98;100.00
18918;BME280;9591;52.742;13.650;2022-07-01T05:47:06;100676.84;;;25.00;100.00
18918;BME280;9591;52.742;13.650;2022-07-01T05:49:56;100689.75;;;25.35;100.00
18918;BME280;9591;52.742;13.650;2022-07-01T05:52:42;100683.03;;;25.48;100.00
18918;BME280;9591;52.742;13.650;2022-07-01T05:55:29;100684.91;;;25.38;100.00
18918;BME280;9591;52.742;13.650;2022-07-01T05:58:16;100685.31;;;25.43;100.00
18918;BME280;9591;52.742;13.650;2022-07-01T06:01:03;100682.75;;;25.52;100.00
18918;BME280;9591;52.742;13.650;2022-07-01T06:03:54;100678.59;;;25.57;100.00
18918;BME280;9591;52.742;13.650;2022-07-01T06:06:42;100699.81;;;25.81;100.00
18918;BME280;9591;52.742;13.650;2022-07-01T06:09:28;100702.63;;;25.89;100.00
18918;BME280;9591;52.742;13.650;2022-07-01T06:12:15;100711.69;;;26.07;100.00
18918;BME280;9591;52.742;13.650;2022-07-01T06:15:02;100720.25;;;26.40;100.00
18918;BME280;9591;52.742;13.650;2022-07-01T06:17:49;100716.78;;;26.48;97.03
18918;BME280;9591;52.742;13.650;2022-07-01T06:20:36;100716.75;;;26.75;98.73
18918;BME280;9591;52.742;13.650;2022-07-01T06:23:24;100726.88;;;27.00;97.61
18918;BME280;9591;52.742;13.650;2022-07-01T06:26:10;100725.31;;;27.16;100.00
18918;BME280;9591;52.742;13.650;2022-07-01T06:28:59;100720.81;;;27.06;99.82
18918;BME280;9591;52.742;13.650;2022-07-01T06:31:49;100720.25;;;27.03;100.00
18918;BME280;9591;52.742;13.650;2022-07-01T06:34:37;100729.63;;;26.91;100.00
18918;BME280;9591;52.742;13.650;2022-07-01T06:37:25;100691.28;;;26.31;100.00
18918;BME280;9591;52.742;13.650;2022-07-01T06:40:14;100720.44;;;26.29;100.00
18918;BME280;9591;52.742;13.650;2022-07-01T06:43:01;100710.19;;;25.95;100.00
18918;BME280;9591;52.742;13.650;2022-07-01T06:45:48;100712.59;;;25.98;100.00
18918;BME280;9591;52.742;13.650;2022-07-01T06:48:35;100716.72;;;26.30;100.00
18918;BME280;9591;52.742;13.650;2022-07-01T06:51:22;100709.22;;;26.69;100.00
18918;BME280;9591;52.742;13.650;2022-07-01T06:54:09;100714.16;;;26.91;100.00
18918;BME280;9591;52.742;13.650;2022-07-01T06:56:57;100712.41;;;26.82;100.00
18918;BME280;9591;52.742;13.650;2022-07-01T06:59:43;100719.00;;;27.15;100.00
18918;BME280;9591;52.742;13.650;2022-07-01T07:02:30;100721.88;;;27.31;100.00
18918;BME280;9591;52.742;13.650;2022-07-01T07:05:17;100721.00;;;27.74;98.74
18918;BME280;9591;52.742;13.650;2022-07-01T07:08:04;100724.56;;;27.75;97.71
18918;BME280;9591;52.742;13.650;2022-07-01T07:10:50;100722.06;;;27.56;98.51
18918;BME280;9591;52.742;13.650;2022-07-01T07:13:38;100724.91;;;27.10;99.16
18918;BME280;9591;52.742;13.650;2022-07-01T07:16:25;100724.69;;;26.86;99.28
18918;BME280;9591;52.742;13.650;2022-07-01T07:19:12;100723.25;;;26.64;100.00
18918;BME280;9591;52.742;13.650;2022-07-01T07:21:59;100728.34;;;26.50;100.00
18918;BME280;9591;52.742;13.650;2022-07-01T07:24:46;100731.81;;;26.42;100.00
18918;BME280;9591;52.742;13.650;2022-07-01T07:27:33;100720.44;;;26.29;100.00
18918;BME280;9591;52.742;13.650;2022-07-01T07:30:21;100720.72;;;26.26;100.00
18918;BME280;9591;52.742;13.650;2022-07-01T07:33:08;100725.47;;;26.24;100.00
18918;BME280;9591;52.742;13.650;2022-07-01T07:35:55;100726.31;;;26.24;100.00
18918;BME280;9591;52.742;13.650;2022-07-01T07:38:42;100724.28;;;26.36;100.00
18918;BME280;9591;52.742;13.650;2022-07-01T07:41:28;100720.34;;;26.48;100.00
18918;BME280;9591;52.742;13.650;2022-07-01T07:44:15;100721.22;;;26.49;100.00
18918;BME280;9591;52.742;13.650;2022-07-01T07:47:03;100727.03;;;26.54;100.00
18918;BME280;9591;52.742;13.650;2022-07-01T07:49:51;100727.28;;;26.60;100.00
18918;BME280;9591;52.742;13.650;2022-07-01T07:52:39;100726.75;;;26.74;99.51
18918;BME280;9591;52.742;13.650;2022-07-01T07:55:26;100724.13;;;26.83;98.57
18918;BME280;9591;52.742;13.650;2022-07-01T07:58:13;100731.13;;;27.03;96.44
18918;BME280;9591;52.742;13.650;2022-07-01T08:01:00;100716.53;;;27.22;96.88
18918;BME280;9591;52.742;13.650;2022-07-01T08:03:51;100716.41;;;27.49;91.87
18918;BME280;9591;52.742;13.650;2022-07-01T08:06:40;100716.06;;;27.70;91.99
18918;BME280;9591;52.742;13.650;2022-07-01T08:09:27;100716.41;;;27.75;89.51
18918;BME280;9591;52.742;13.650;2022-07-01T08:12:14;100714.75;;;27.82;89.10
18918;BME280;9591;52.742;13.650;2022-07-01T08:15:01;100712.19;;;27.81;88.79
18918;BME280;9591;52.742;13.650;2022-07-01T08:17:48;100713.66;;;27.67;87.07
18918;BME280;9591;52.742;13.650;2022-07-01T08:20:37;100709.94;;;27.68;88.50
18918;BME280;9591;52.742;13.650;2022-07-01T08:23:23;100704.50;;;27.68;87.59
18918;BME280;9591;52.742;13.650;2022-07-01T08:26:10;100708.63;;;27.54;88.04
18918;BME280;9591;52.742;13.650;2022-07-01T08:28:59;100711.97;;;27.66;89.35
18918;BME280;9591;52.742;13.650;2022-07-01T08:31:46;100702.00;;;27.57;90.54
18918;BME280;9591;52.742;13.650;2022-07-01T08:34:38;100706.44;;;27.58;87.75
18918;BME280;9591;52.742;13.650;2022-07-01T08:37:29;100699.44;;;27.81;89.38
18918;BME280;9591;52.742;13.650;2022-07-01T08:40:15;100707.66;;;27.89;87.19
18918;BME280;9591;52.742;13.650;2022-07-01T08:43:03;100704.16;;;28.05;85.99
18918;BME280;9591;52.742;13.650;2022-07-01T08:45:51;100706.41;;;28.10;85.74
18918;BME280;9591;52.742;13.650;2022-07-01T08:48:41;100701.22;;;28.24;85.35
18918;BME280;9591;52.742;13.650;2022-07-01T08:51:28;100706.34;;;28.27;85.00
18918;BME280;9591;52.742;13.650;2022-07-01T08:54:16;100703.66;;;28.35;84.45
18918;BME280;9591;52.742;13.650;2022-07-01T08:57:05;100700.72;;;28.29;81.39
18918;BME280;9591;52.742;13.650;2022-07-01T09:00:00;100691.50;;;28.22;80.09
18918;BME280;9591;52.742;13.650;2022-07-01T09:02:50;100688.22;;;28.52;83.12
18918;BME280;9591;52.742;13.650;2022-07-01T09:05:38;100687.53;;;28.58;80.80
18918;BME280;9591;52.742;13.650;2022-07-01T09:08:29;100689.78;;;28.79;78.83
18918;BME280;9591;52.742;13.650;2022-07-01T09:11:23;100685.56;;;28.93;79.31
18918;BME280;9591;52.742;13.650;2022-07-01T09:14:15;100691.00;;;28.85;79.20
18918;BME280;9591;52.742;13.650;2022-07-01T09:17:07;100698.13;;;28.78;79.30
18918;BME280;9591;52.742;13.650;2022-07-01T09:19:58;100695.88;;;28.73;78.62
18918;BME280;9591;52.742;13.650;2022-07-01T09:23:02;100680.56;;;28.80;79.45
18918;BME280;9591;52.742;13.650;2022-07-01T09:25:53;100684.81;;;28.66;78.35
18918;BME280;9591;52.742;13.650;2022-07-01T09:28:52;100697.94;;;28.71;76.32
18918;BME280;9591;52.742;13.650;2022-07-01T09:31:47;100692.28;;;28.48;79.12
18918;BME280;9591;52.742;13.650;2022-07-01T09:34:35;100696.03;;;28.13;82.67
18918;BME280;9591;52.742;13.650;2022-07-01T09:37:26;100696.19;;;28.12;82.34
18918;BME280;9591;52.742;13.650;2022-07-01T09:40:13;100698.69;;;28.31;83.06
18918;BME280;9591;52.742;13.650;2022-07-01T09:43:01;100698.84;;;28.88;81.05
18918;BME280;9591;52.742;13.650;2022-07-01T09:46:01;100708.91;;;29.12;75.23
18918;BME280;9591;52.742;13.650;2022-07-01T09:48:58;100710.63;;;29.29;75.33
18918;BME280;9591;52.742;13.650;2022-07-01T09:51:52;100706.88;;;29.06;76.54
18918;BME280;9591;52.742;13.650;2022-07-01T09:54:38;100709.69;;;28.80;77.51
18918;BME280;9591;52.742;13.650;2022-07-01T09:57:25;100716.47;;;28.51;79.24
18918;BME280;9591;52.742;13.650;2022-07-01T10:00:13;100720.28;;;28.24;81.34
18918;BME280;9591;52.742;13.650;2022-07-01T10:03:03;100729.72;;;28.12;79.57
18918;BME280;9591;52.742;13.650;2022-07-01T10:05:54;100732.16;;;27.89;78.67
18918;BME280;9591;52.742;13.650;2022-07-01T10:08:50;100746.63;;;27.64;78.92
18918;BME280;9591;52.742;13.650;2022-07-01T10:11:52;100753.88;;;27.37;79.21
18918;BME280;9591;52.742;13.650;2022-07-01T10:14:48;100753.09;;;27.09;80.86
18918;BME280;9591;52.742;13.650;2022-07-01T10:17:37;100756.25;;;26.69;81.32
18918;BME280;9591;52.742;13.650;2022-07-01T10:20:31;100769.28;;;26.38;82.81
18918;BME280;9591;52.742;13.650;2022-07-01T10:23:23;100794.34;;;25.76;85.29
18918;BME280;9591;52.742;13.650;2022-07-01T10:26:10;100778.78;;;25.49;88.36
18918;BME280;9591;52.742;13.650;2022-07-01T10:28:57;100780.91;;;25.26;89.52
18918;BME280;9591;52.742;13.650;2022-07-01T10:31:44;100776.50;;;25.25;90.70
18918;BME280;9591;52.742;13.650;2022-07-01T10:34:35;100782.91;;;25.43;90.42
18918;BME280;9591;52.742;13.650;2022-07-01T10:37:24;100790.34;;;25.22;88.43
18918;BME280;9591;52.742;13.650;2022-07-01T10:40:10;100793.75;;;25.24;91.28
18918;BME280;9591;52.742;13.650;2022-07-01T10:42:58;100798.59;;;25.30;90.59
18918;BME280;9591;52.742;13.650;2022-07-01T10:46:02;100809.44;;;25.40;89.37
18918;BME280;9591;52.742;13.650;2022-07-01T10:48:51;100808.44;;;25.31;87.69
18918;BME280;9591;52.742;13.650;2022-07-01T10:51:51;100809.88;;;25.16;87.72
18918;BME280;9591;52.742;13.650;2022-07-01T10:54:49;100808.91;;;25.07;89.98
18918;BME280;9591;52.742;13.650;2022-07-01T10:57:40;100830.75;;;24.75;89.21
18918;BME280;9591;52.742;13.650;2022-07-01T11:00:30;100825.00;;;24.59;90.64
18918;BME280;9591;52.742;13.650;2022-07-01T11:03:22;100822.59;;;24.35;91.58
18918;BME280;9591;52.742;13.650;2022-07-01T11:06:11;100831.59;;;24.36;94.39
18918;BME280;9591;52.742;13.650;2022-07-01T11:09:05;100821.75;;;24.35;92.23
18918;BME280;9591;52.742;13.650;2022-07-01T11:12:10;100841.69;;;24.64;93.96
18918;BME280;9591;52.742;13.650;2022-07-01T11:15:03;100834.41;;;24.65;90.04
18918;BME280;9591;52.742;13.650;2022-07-01T11:17:51;100847.91;;;24.55;90.75
18918;BME280;9591;52.742;13.650;2022-07-01T11:20:43;100847.63;;;24.28;90.63
18918;BME280;9591;52.742;13.650;2022-07-01T11:23:40;100834.66;;;24.01;92.55
18918;BME280;9591;52.742;13.650;2022-07-01T11:26:35;100841.34;;;23.76;93.12
18918;BME280;9591;52.742;13.650;2022-07-01T11:29:29;100843.91;;;23.45;94.40
18918;BME280;9591;52.742;13.650;2022-07-01T11:32:25;100845.59;;;23.26;96.67
18918;BME280;9591;52.742;13.650;2022-07-01T11:35:15;100852.44;;;22.98;97.00
18918;BME280;9591;52.742;13.650;2022-07-01T11:38:23;100829.50;;;22.58;96.47
18918;BME280;9591;52.742;13.650;2022-07-01T11:41:29;100875.03;;;22.52;98.83
18918;BME280;9591;52.742;13.650;2022-07-01T11:44:30;100901.63;;;22.23;99.54
18918;BME280;9591;52.742;13.650;2022-07-01T11:47:24;100910.22;;;21.93;100.00
18918;BME280;9591;52.742;13.650;2022-07-01T11:50:11;100919.59;;;21.76;100.00
18918;BME280;9591;52.742;13.650;2022-07-01T11:53:03;100928.56;;;21.53;100.00
18918;BME280;9591;52.742;13.650;2022-07-01T11:55:52;100930.34;;;21.41;100.00
18918;BME280;9591;52.742;13.650;2022-07-01T11:58:49;100913.78;;;21.35;100.00
18918;BME280;9591;52.742;13.650;2022-07-01T12:01:39;100907.75;;;21.18;100.00
18918;BME280;9591;52.742;13.650;2022-07-01T12:04:29;100904.66;;;21.12;100.00
18918;BME280;9591;52.742;13.650;2022-07-01T12:07:20;100913.72;;;21.11;100.00
18918;BME280;9591;52.742;13.650;2022-07-01T12:10:07;100911.47;;;21.05;100.00
18918;BME280;9591;52.742;13.650;2022-07-01T12:12:54;100896.91;;;21.07;100.00
18918;BME280;9591;52.742;13.650;2022-07-01T12:15:41;100894.84;;;21.11;100.00
18918;BME280;9591;52.742;13.650;2022-07-01T12:18:29;100890.50;;;21.34;100.00
18918;BME280;9591;52.742;13.650;2022-07-01T12:21:16;100880.94;;;21.53;100.00
18918;BME280;9591;52.742;13.650;2022-07-01T12:24:08;100884.75;;;21.62;100.00
18918;BME280;9591;52.742;13.650;2022-07-01T12:27:02;100883.41;;;21.68;100.00
18918;BME280;9591;52.742;13.650;2022-07-01T12:29:52;100883.00;;;21.96;100.00
18918;BME280;9591;52.742;13.650;2022-07-01T12:32:41;100858.31;;;22.13;100.00
18918;BME280;9591;52.742;13.650;2022-07-01T12:35:32;100834.78;;;22.27;98.42
18918;BME280;9591;52.742;13.650;2022-07-01T12:38:23;100826.91;;;22.57;100.00
18918;BME280;9591;52.742;13.650;2022-07-01T12:41:28;100832.06;;;22.94;99.30
18918;BME280;9591;52.742;13.650;2022-07-01T12:44:23;100847.38;;;23.04;95.35
18918;BME280;9591;52.742;13.650;2022-07-01T12:47:17;100860.84;;;23.15;94.27
18918;BME280;9591;52.742;13.650;2022-07-01T12:50:08;100886.25;;;23.24;94.78
18918;BME280;9591;52.742;13.650;2022-07-01T12:53:02;100906.50;;;23.30;94.35
18918;BME280;9591;52.742;13.650;2022-07-01T12:55:51;100928.03;;;23.09;94.06
18918;BME280;9591;52.742;13.650;2022-07-01T12:58:38;100941.25;;;22.78;94.64
18918;BME280;9591;52.742;13.650;2022-07-01T13:01:25;100949.34;;;22.67;96.86
18918;BME280;9591;52.742;13.650;2022-07-01T13:04:12;100937.09;;;22.52;97.09
18918;BME280;9591;52.742;13.650;2022-07-01T13:06:59;100938.09;;;22.51;97.82
18918;BME280;9591;52.742;13.650;2022-07-01T13:09:47;100934.09;;;22.21;99.55
18918;BME280;9591;52.742;13.650;2022-07-01T13:12:34;100953.72;;;22.23;100.00
18918;BME280;9591;52.742;13.650;2022-07-01T13:15:21;100972.50;;;22.25;100.00
18918;BME280;9591;52.742;13.650;2022-07-01T13:18:08;100962.53;;;22.14;100.00
18918;BME280;9591;52.742;13.650;2022-07-01T13:20:55;100958.59;;;22.07;100.00
18918;BME280;9591;52.742;13.650;2022-07-01T13:23:41;100970.56;;;22.03;100.00
18918;BME280;9591;52.742;13.650;2022-07-01T13:26:29;100981.53;;;22.13;100.00
18918;BME280;9591;52.742;13.650;2022-07-01T13:29:16;100999.69;;;21.98;100.00
18918;BME280;9591;52.742;13.650;2022-07-01T13:32:04;101003.25;;;21.75;100.00
18918;BME280;9591;52.742;13.650;2022-07-01T13:34:50;101000.78;;;21.72;100.00
18918;BME280;9591;52.742;13.650;2022-07-01T13:37:39;100992.91;;;21.57;100.00
18918;BME280;9591;52.742;13.650;2022-07-01T13:40:26;100999.53;;;21.41;100.00
18918;BME280;9591;52.742;13.650;2022-07-01T13:43:14;101001.28;;;21.29;100.00
18918;BME280;9591;52.742;13.650;2022-07-01T13:46:01;101013.47;;;21.22;100.00
18918;BME280;9591;52.742;13.650;2022-07-01T13:48:50;101023.66;;;21.17;100.00
18918;BME280;9591;52.742;13.650;2022-07-01T13:51:37;101036.28;;;21.04;100.00
18918;BME280;9591;52.742;13.650;2022-07-01T13:54:26;101030.47;;;20.97;100.00
18918;BME280;9591;52.742;13.650;2022-07-01T13:57:13;101030.59;;;20.83;100.00
18918;BME280;9591;52.742;13.650;2022-07-01T14:00:01;101025.03;;;20.73;100.00
18918;BME280;9591;52.742;13.650;2022-07-01T14:02:53;101045.66;;;20.60;100.00
18918;BME280;9591;52.742;13.650;2022-07-01T14:05:40;101049.31;;;20.46;100.00
18918;BME280;9591;52.742;13.650;2022-07-01T14:08:26;101051.66;;;20.38;100.00
18918;BME280;9591;52.742;13.650;2022-07-01T14:11:14;101045.59;;;20.35;100.00
18918;BME280;9591;52.742;13.650;2022-07-01T14:14:01;101036.28;;;20.13;100.00
18918;BME280;9591;52.742;13.650;2022-07-01T14:16:49;101053.34;;;20.00;100.00
18918;BME280;9591;52.742;13.650;2022-07-01T14:19:36;101059.84;;;19.83;100.00
18918;BME280;9591;52.742;13.650;2022-07-01T14:22:23;101064.66;;;19.78;100.00
18918;BME280;9591;52.742;13.650;2022-07-01T14:25:10;101068.50;;;19.74;100.00
18918;BME280;9591;52.742;13.650;2022-07-01T14:27:57;101061.72;;;19.68;100.00
18918;BME280;9591;52.742;13.650;2022-07-01T14:30:44;101054.50;;;19.69;100.00
18918;BME280;9591;52.742;13.650;2022-07-01T14:33:32;101064.88;;;19.60;100.00